createdAt,value
2022-08-08T00:00:54.072Z,74.27
2022-08-08T00:00:54.655Z,73.33
2022-08-08T00:02:04.130Z,73.36
2022-08-08T00:02:34.930Z,73.02
2022-08-08T00:03:33.935Z,73.12
2022-08-08T00:04:33.977Z,73.83
2022-08-08T00:05:56.747Z,73.83
2022-08-08T00:06:35.472Z,74.48
2022-08-08T00:07:33.883Z,74.38
2022-08-08T00:08:33.874Z,75.09
2022-08-08T00:09:33.853Z,74.98
2022-08-08T00:10:33.848Z,75.19
2022-08-08T00:11:47.018Z,75.32
2022-08-08T00:12:34.821Z,75.90
2022-08-08T00:14:14.858Z,76.14
2022-08-08T00:14:47.709Z,76.64
2022-08-08T00:15:56.634Z,76.85
2022-08-08T00:16:34.780Z,76.95
2022-08-08T00:17:48.005Z,76.78
2022-08-08T00:18:34.765Z,77.25
2022-08-08T00:19:33.766Z,78.10
2022-08-08T00:20:33.738Z,77.39
2022-08-08T00:21:39.530Z,77.09
2022-08-08T00:22:34.718Z,76.72
2022-08-08T00:23:43.110Z,76.68
2022-08-08T00:24:34.688Z,77.02
2022-08-08T00:25:44.699Z,76.48
2022-08-08T00:26:34.701Z,76.82
2022-08-08T00:27:34.893Z,77.43
2022-08-08T00:28:35.788Z,77.80
2022-08-08T00:29:45.987Z,77.73
2022-08-08T00:30:34.633Z,77.33
2022-08-08T00:32:29.277Z,78.55
2022-08-08T00:32:36.523Z,78.24
2022-08-08T00:34:17.319Z,78.04
2022-08-08T00:34:34.956Z,78.04
2022-08-08T00:35:34.274Z,78.34
2022-08-08T00:36:35.023Z,77.02
2022-08-08T00:37:47.348Z,77.02
2022-08-08T00:38:51.549Z,77.33
2022-08-08T00:41:05.856Z,76.86
2022-08-08T00:41:11.653Z,77.94
2022-08-08T00:41:55.358Z,77.43
2022-08-08T00:42:36.813Z,77.63
2022-08-08T00:43:40.225Z,77.47
2022-08-08T00:44:34.477Z,77.26
2022-08-08T00:45:33.467Z,77.16
2022-08-08T00:46:57.336Z,77.06
2022-08-08T00:47:36.949Z,77.22
2022-08-08T00:48:34.441Z,77.43
2022-08-08T00:49:33.447Z,76.92
2022-08-08T00:50:33.413Z,76.41
2022-08-08T00:51:38.817Z,76.28
2022-08-08T00:52:38.952Z,76.37
2022-08-08T00:53:43.637Z,75.97
2022-08-08T00:54:34.375Z,75.97
2022-08-08T00:55:36.000Z,75.76
2022-08-08T00:56:34.348Z,75.97
2022-08-08T00:57:36.114Z,75.97
2022-08-08T00:58:33.324Z,75.83
2022-08-08T00:59:44.588Z,75.63
2022-08-08T01:00:37.747Z,75.76
2022-08-08T01:01:38.776Z,75.97
2022-08-08T01:03:59.720Z,75.32
2022-08-08T01:04:02.805Z,75.63
2022-08-08T01:04:34.266Z,75.32
2022-08-08T01:05:42.375Z,75.73
2022-08-08T01:06:34.246Z,75.97
2022-08-08T01:07:54.105Z,76.24
2022-08-08T01:09:43.550Z,76.58
2022-08-08T01:10:44.536Z,76.37
2022-08-08T01:11:44.535Z,76.37
2022-08-08T01:12:44.504Z,76.61
2022-08-08T01:13:46.092Z,76.41
2022-08-08T01:14:54.254Z,76.41
2022-08-08T01:15:47.280Z,76.61
2022-08-08T01:16:44.459Z,76.61
2022-08-08T01:17:53.245Z,76.51
2022-08-08T01:18:53.442Z,76.28
2022-08-08T01:20:01.497Z,76.82
2022-08-08T01:20:44.762Z,77.33
2022-08-08T01:22:12.360Z,76.92
2022-08-08T01:22:44.428Z,76.92
2022-08-08T01:24:03.367Z,77.02
2022-08-08T01:24:54.163Z,76.58
2022-08-08T01:25:54.058Z,76.68
2022-08-08T01:26:49.327Z,76.28
2022-08-08T01:27:46.198Z,76.24
2022-08-08T01:28:43.333Z,76.17
2022-08-08T01:29:59.838Z,76.28
2022-08-08T01:30:44.315Z,76.03
2022-08-08T01:32:06.367Z,76.07
2022-08-08T01:32:44.284Z,75.93
2022-08-08T01:33:54.389Z,75.76
2022-08-08T01:34:44.266Z,76.37
2022-08-08T01:35:43.252Z,76.17
2022-08-08T01:36:43.234Z,76.78
2022-08-08T01:37:58.503Z,76.58
2022-08-08T01:38:44.235Z,77.19
2022-08-08T01:39:43.317Z,76.41
2022-08-08T01:40:43.200Z,77.09
2022-08-08T01:41:43.802Z,76.98
2022-08-08T01:42:43.176Z,76.92
2022-08-08T01:43:43.158Z,76.78
2022-08-08T01:44:43.147Z,76.88
2022-08-08T01:45:44.163Z,76.88
2022-08-08T01:46:44.135Z,76.98
2022-08-08T01:48:14.771Z,76.78
2022-08-08T01:48:46.291Z,77.12
2022-08-08T01:49:43.101Z,77.19
2022-08-08T01:50:43.093Z,77.09
2022-08-08T01:52:04.777Z,77.12
2022-08-08T01:52:55.747Z,77.12
2022-08-08T01:54:33.281Z,77.02
2022-08-08T01:55:18.787Z,77.43
2022-08-08T01:56:29.847Z,77.43
2022-08-08T01:56:46.965Z,77.43
2022-08-08T01:58:11.157Z,78.04
2022-08-08T01:58:47.276Z,77.87
2022-08-08T02:00:02.806Z,78.28
2022-08-08T02:00:44.019Z,78.89
2022-08-08T02:02:00.409Z,78.48
2022-08-08T02:02:44.320Z,79.09
2022-08-08T02:03:57.766Z,79.63
2022-08-08T02:04:43.944Z,79.43
2022-08-08T02:05:56.800Z,79.43
2022-08-08T02:06:43.916Z,79.94
2022-08-08T02:07:49.050Z,79.98
2022-08-08T02:08:47.066Z,81.37
2022-08-08T02:10:02.274Z,80.59
2022-08-08T02:10:45.149Z,80.90
2022-08-08T02:11:52.730Z,80.99
2022-08-08T02:12:49.776Z,80.99
2022-08-08T02:13:53.667Z,80.99
2022-08-08T02:14:50.057Z,80.99
2022-08-08T02:15:43.829Z,80.99
2022-08-08T02:16:42.935Z,81.30
2022-08-08T02:17:43.594Z,81.40
2022-08-08T02:18:42.780Z,81.60
2022-08-08T02:20:07.741Z,81.81
2022-08-08T02:21:02.819Z,81.95
2022-08-08T02:21:43.762Z,81.95
2022-08-08T02:22:52.471Z,81.85
2022-08-08T02:23:43.730Z,81.74
2022-08-08T02:24:44.268Z,82.05
2022-08-08T02:25:48.387Z,82.15
2022-08-08T02:26:43.705Z,83.11
2022-08-08T02:27:43.915Z,82.80
2022-08-08T02:28:42.680Z,83.01
2022-08-08T02:29:51.895Z,83.51
2022-08-08T02:30:50.180Z,83.62
2022-08-08T02:32:00.404Z,83.01
2022-08-08T02:32:43.643Z,83.92
2022-08-08T02:34:00.268Z,83.92
2022-08-08T02:35:07.951Z,83.72
2022-08-08T02:36:04.548Z,83.62
2022-08-08T02:36:43.596Z,83.82
2022-08-08T02:37:52.197Z,83.72
2022-08-08T02:38:44.811Z,83.86
2022-08-08T02:39:59.896Z,84.03
2022-08-08T02:40:45.290Z,84.03
2022-08-08T02:41:58.998Z,83.72
2022-08-08T02:42:43.521Z,84.37
2022-08-08T02:44:39.076Z,84.27
2022-08-08T02:44:57.046Z,84.74
2022-08-08T02:45:51.376Z,84.58
2022-08-08T02:46:43.933Z,84.47
2022-08-08T02:47:47.122Z,84.47
2022-08-08T02:48:43.462Z,84.33
2022-08-08T02:49:51.488Z,84.43
2022-08-08T02:50:47.257Z,84.67
2022-08-08T02:51:55.092Z,84.47
2022-08-08T02:52:43.572Z,84.74
2022-08-08T02:53:43.414Z,84.98
2022-08-08T02:54:42.397Z,84.98
2022-08-08T02:55:42.410Z,85.28
2022-08-08T02:56:42.367Z,85.69
2022-08-08T02:57:45.069Z,86.00
2022-08-08T02:58:42.347Z,85.90
2022-08-08T02:59:58.492Z,85.84
2022-08-08T03:00:47.160Z,85.63
2022-08-08T03:01:47.522Z,85.94
2022-08-08T03:02:43.312Z,85.69
2022-08-08T03:05:00.554Z,85.94
2022-08-08T03:05:04.905Z,85.33
2022-08-08T03:05:45.523Z,84.98
2022-08-08T03:06:42.268Z,85.28
2022-08-08T03:07:58.240Z,84.78
2022-08-08T03:08:43.238Z,84.98
2022-08-08T03:09:43.238Z,85.19
2022-08-08T03:10:44.753Z,84.88
2022-08-08T03:12:01.210Z,85.45
2022-08-08T03:13:01.422Z,84.94
2022-08-08T03:15:56.572Z,84.67
2022-08-08T03:16:00.167Z,84.43
2022-08-08T03:16:01.029Z,84.53
2022-08-08T03:16:43.248Z,84.53
2022-08-08T03:17:42.155Z,84.33
2022-08-08T03:18:43.175Z,84.74
2022-08-08T03:19:50.816Z,84.94
2022-08-08T03:20:43.118Z,85.28
2022-08-08T03:21:58.181Z,85.08
2022-08-08T03:23:59.315Z,85.63
2022-08-08T03:24:56.917Z,86.21
2022-08-08T03:25:52.397Z,86.65
2022-08-08T03:26:52.384Z,86.24
2022-08-08T03:27:56.585Z,86.80
2022-08-08T03:28:52.377Z,86.86
2022-08-08T03:29:56.241Z,87.20
2022-08-08T03:31:13.687Z,87.16
2022-08-08T03:32:06.361Z,86.69
2022-08-08T03:32:59.861Z,87.10
2022-08-08T03:33:55.570Z,87.30
2022-08-08T03:34:53.329Z,87.10
2022-08-08T03:35:52.301Z,86.86
2022-08-08T03:36:52.282Z,87.26
2022-08-08T03:38:54.775Z,86.86
2022-08-08T03:39:07.617Z,86.65
2022-08-08T03:40:00.621Z,86.55
2022-08-08T03:40:53.307Z,86.45
2022-08-08T03:42:26.707Z,86.35
2022-08-08T03:42:53.262Z,85.94
2022-08-08T03:43:52.212Z,86.35
2022-08-08T03:44:52.496Z,86.55
2022-08-08T03:46:04.883Z,86.65
2022-08-08T03:46:53.186Z,86.65
2022-08-08T03:47:54.163Z,87.16
2022-08-08T03:49:38.256Z,86.96
2022-08-08T03:49:57.160Z,86.49
2022-08-08T03:50:53.145Z,86.69
2022-08-08T03:51:52.154Z,87.00
2022-08-08T03:52:52.111Z,87.10
2022-08-08T03:53:52.109Z,87.67
2022-08-08T03:55:10.196Z,86.96
2022-08-08T03:55:56.792Z,86.55
2022-08-08T03:56:53.072Z,86.65
2022-08-08T03:58:33.829Z,86.45
2022-08-08T03:58:53.071Z,86.45
2022-08-08T04:00:07.194Z,86.35
2022-08-08T04:01:01.794Z,86.45
2022-08-08T04:02:02.457Z,86.86
2022-08-08T04:02:53.278Z,87.16
2022-08-08T04:03:59.656Z,86.86
2022-08-08T04:04:52.988Z,87.06
2022-08-08T04:05:51.983Z,86.86
2022-08-08T04:06:51.969Z,86.86
2022-08-08T04:07:51.956Z,86.86
2022-08-08T04:08:51.952Z,86.92
2022-08-08T04:10:00.515Z,86.86
2022-08-08T04:10:59.876Z,87.26
2022-08-08T04:11:59.046Z,87.63
2022-08-08T04:12:52.900Z,87.02
2022-08-08T04:14:04.358Z,86.92
2022-08-08T04:14:52.887Z,87.32
2022-08-08T04:15:54.809Z,86.41
2022-08-08T04:16:52.870Z,86.27
2022-08-08T04:17:58.783Z,86.77
2022-08-08T04:18:52.843Z,86.13
2022-08-08T04:19:52.043Z,85.17
2022-08-08T04:20:51.824Z,84.66
2022-08-08T04:21:51.823Z,84.31
2022-08-08T04:22:51.798Z,83.67
2022-08-08T04:24:05.400Z,83.32
2022-08-08T04:24:52.778Z,82.61
2022-08-08T04:25:51.759Z,82.31
2022-08-08T04:26:57.294Z,81.45
2022-08-08T04:28:02.157Z,81.25
2022-08-08T04:28:54.507Z,80.71
2022-08-08T04:29:55.350Z,80.80
2022-08-08T04:30:55.201Z,80.91
2022-08-08T04:31:59.164Z,80.60
2022-08-08T04:32:52.707Z,80.06
2022-08-08T04:33:51.689Z,81.07
2022-08-08T04:34:58.441Z,80.26
2022-08-08T04:35:52.670Z,80.46
2022-08-08T04:36:51.659Z,79.61
2022-08-08T04:37:51.646Z,79.72
2022-08-08T04:39:20.246Z,79.21
2022-08-08T04:40:05.043Z,79.27
2022-08-08T04:40:54.081Z,79.27
2022-08-08T04:41:51.597Z,78.83
2022-08-08T04:42:56.614Z,78.22
2022-08-08T04:43:57.275Z,78.42
2022-08-08T04:44:52.565Z,77.21
2022-08-08T04:45:51.560Z,78.02
2022-08-08T04:46:52.522Z,77.88
2022-08-08T04:47:51.540Z,76.87
2022-08-08T04:48:51.535Z,76.46
2022-08-08T04:50:01.104Z,75.85
2022-08-08T04:50:52.497Z,75.72
2022-08-08T04:51:56.855Z,75.42
2022-08-08T04:52:58.526Z,75.28
2022-08-08T04:54:39.543Z,75.18
2022-08-08T04:54:52.465Z,74.87
2022-08-08T04:55:56.135Z,74.84
2022-08-08T04:56:52.440Z,73.66
2022-08-08T04:57:51.452Z,73.22
2022-08-08T04:58:51.432Z,73.72
2022-08-08T04:59:51.403Z,72.92
2022-08-08T05:00:51.695Z,72.92
2022-08-08T05:01:51.468Z,73.02
2022-08-08T05:02:53.044Z,72.99
2022-08-08T05:04:09.918Z,72.55
2022-08-08T05:04:52.357Z,72.44
2022-08-08T05:05:53.604Z,72.04
2022-08-08T05:06:52.534Z,72.04
2022-08-08T05:07:51.326Z,72.00
2022-08-08T05:08:52.334Z,71.50
2022-08-08T05:09:51.306Z,70.89
2022-08-08T05:10:51.294Z,71.20
2022-08-08T05:11:56.477Z,71.06
2022-08-08T05:13:00.557Z,70.96
2022-08-08T05:13:57.533Z,71.06
2022-08-08T05:14:52.410Z,70.86
2022-08-08T05:16:53.368Z,71.13
2022-08-08T05:17:01.216Z,70.62
2022-08-08T05:17:54.335Z,70.42
2022-08-08T05:18:51.210Z,70.22
2022-08-08T05:20:10.050Z,70.19
2022-08-08T05:20:52.337Z,70.09
2022-08-08T05:21:59.949Z,70.09
2022-08-08T05:22:52.177Z,69.79
2022-08-08T05:23:51.148Z,69.25
2022-08-08T05:24:52.157Z,68.95
2022-08-08T05:25:51.127Z,68.95
2022-08-08T05:26:51.122Z,68.95
2022-08-08T05:27:51.117Z,69.21
2022-08-08T05:28:57.611Z,69.05
2022-08-08T05:29:52.552Z,69.12
2022-08-08T05:30:51.080Z,69.21
2022-08-08T05:32:05.547Z,68.91
2022-08-08T05:32:52.063Z,67.91
2022-08-08T05:33:51.065Z,68.01
2022-08-08T05:34:51.034Z,67.91
2022-08-08T05:35:53.937Z,67.60
2022-08-08T05:36:51.037Z,67.91
2022-08-08T05:37:52.968Z,67.68
2022-08-08T05:38:51.009Z,69.09
2022-08-08T05:39:51.204Z,68.18
2022-08-08T05:40:55.797Z,67.37
2022-08-08T05:41:54.840Z,66.87
2022-08-08T05:42:50.974Z,67.17
2022-08-08T05:44:03.734Z,67.27
2022-08-08T05:44:51.961Z,67.17
2022-08-08T05:45:53.308Z,66.63
2022-08-08T05:46:51.287Z,67.24
2022-08-08T05:47:59.951Z,66.77
2022-08-08T05:48:52.168Z,67.17
2022-08-08T05:49:53.936Z,66.74
2022-08-08T05:50:58.923Z,66.87
2022-08-08T05:51:51.865Z,66.83
2022-08-08T05:52:50.852Z,67.94
2022-08-08T05:53:56.141Z,66.77
2022-08-08T05:54:53.651Z,67.97
2022-08-08T05:56:07.936Z,67.57
2022-08-08T05:56:51.802Z,67.34
2022-08-08T05:58:06.070Z,67.44
2022-08-08T05:58:53.886Z,66.23
2022-08-08T05:59:59.349Z,66.00
2022-08-08T06:00:57.065Z,67.51
2022-08-08T06:01:57.150Z,66.40
2022-08-08T06:02:51.810Z,65.97
2022-08-08T06:03:53.661Z,65.70
2022-08-08T06:04:54.797Z,66.17
2022-08-08T06:05:51.733Z,66.87
2022-08-08T06:06:50.708Z,65.16
2022-08-08T06:07:50.728Z,64.66
2022-08-08T06:08:55.069Z,64.46
2022-08-08T06:09:59.577Z,65.87
2022-08-08T06:10:51.806Z,65.36
2022-08-08T06:11:50.654Z,65.23
2022-08-08T06:12:50.641Z,64.93
2022-08-08T06:13:50.628Z,64.63
2022-08-08T06:14:50.620Z,65.70
2022-08-08T06:15:53.802Z,63.79
2022-08-08T06:16:51.985Z,63.70
2022-08-08T06:18:20.598Z,62.99
2022-08-08T06:18:51.583Z,61.99
2022-08-08T06:19:50.576Z,62.08
2022-08-08T06:20:50.572Z,62.76
2022-08-08T06:21:57.083Z,63.39
2022-08-08T06:22:51.537Z,63.59
2022-08-08T06:24:04.600Z,63.49
2022-08-08T06:24:53.531Z,62.79
2022-08-08T06:26:39.058Z,62.49
2022-08-08T06:26:52.613Z,62.79
2022-08-08T06:27:50.479Z,61.88
2022-08-08T06:28:50.462Z,62.08
2022-08-08T06:30:00.117Z,62.79
2022-08-08T06:30:51.453Z,62.96
2022-08-08T06:31:52.437Z,61.66
2022-08-08T06:32:52.652Z,61.55
2022-08-08T06:34:26.150Z,61.46
2022-08-08T06:35:11.532Z,61.76
2022-08-08T06:36:06.670Z,61.05
2022-08-08T06:36:53.794Z,61.02
2022-08-08T06:37:55.028Z,63.64
2022-08-08T06:38:51.356Z,62.83
2022-08-08T06:39:56.214Z,62.60
2022-08-08T06:40:53.678Z,61.30
2022-08-08T06:41:50.331Z,60.80
2022-08-08T06:42:50.320Z,60.60
2022-08-08T06:43:57.303Z,61.27
2022-08-08T06:44:51.288Z,61.67
2022-08-08T06:45:50.281Z,61.54
2022-08-08T06:46:50.283Z,61.14
2022-08-08T06:47:58.258Z,61.64
2022-08-08T06:48:51.247Z,61.44
2022-08-08T06:49:55.649Z,60.61
2022-08-08T06:50:52.117Z,61.11
2022-08-08T06:51:57.720Z,60.38
2022-08-08T06:52:51.208Z,60.28
2022-08-08T06:53:50.871Z,60.98
2022-08-08T06:54:51.194Z,59.08
2022-08-08T06:56:02.339Z,59.18
2022-08-08T06:56:51.591Z,58.98
2022-08-08T06:57:56.177Z,59.68
2022-08-08T06:58:51.152Z,59.58
2022-08-08T07:00:10.302Z,59.25
2022-08-08T07:00:51.157Z,60.08
2022-08-08T07:02:17.446Z,59.65
2022-08-08T07:02:51.151Z,58.95
2022-08-08T07:04:35.915Z,59.15
2022-08-08T07:04:52.107Z,58.95
2022-08-08T07:06:01.672Z,59.32
2022-08-08T07:06:51.233Z,58.82
2022-08-08T07:07:50.056Z,58.85
2022-08-08T07:08:51.477Z,56.07
2022-08-08T07:09:59.338Z,56.65
2022-08-08T07:10:51.016Z,54.44
2022-08-08T07:11:51.016Z,55.74
2022-08-08T07:12:50.025Z,55.87
2022-08-08T07:14:00.766Z,55.98
2022-08-08T07:14:51.629Z,56.05
2022-08-08T07:16:06.164Z,56.74
2022-08-08T07:16:53.980Z,56.85
2022-08-08T07:18:00.848Z,56.24
2022-08-08T07:18:50.963Z,56.22
2022-08-08T07:19:50.929Z,55.82
2022-08-08T07:20:50.560Z,54.62
2022-08-08T07:21:49.911Z,54.52
2022-08-08T07:22:49.922Z,53.99
2022-08-08T07:24:01.125Z,54.60
2022-08-08T07:24:50.895Z,55.29
2022-08-08T07:25:54.583Z,54.27
2022-08-08T07:26:52.899Z,55.66
2022-08-08T07:28:01.915Z,55.17
2022-08-08T07:28:50.848Z,54.57
2022-08-08T07:30:02.089Z,55.97
2022-08-08T07:30:50.808Z,55.27
2022-08-08T07:31:49.805Z,53.69
2022-08-08T07:32:49.792Z,54.49
2022-08-08T07:33:53.781Z,55.19
2022-08-08T07:35:00.430Z,53.99
2022-08-08T07:35:54.330Z,54.86
2022-08-08T07:36:50.441Z,55.59
2022-08-08T07:38:04.155Z,53.57
2022-08-08T07:38:53.314Z,54.57
2022-08-08T07:39:57.888Z,54.57
2022-08-08T07:40:50.806Z,54.24
2022-08-08T07:42:04.432Z,54.44
2022-08-08T07:42:50.710Z,54.74
2022-08-08T07:43:51.190Z,53.61
2022-08-08T07:44:51.390Z,53.81
2022-08-08T07:46:05.171Z,54.22
2022-08-08T07:46:57.155Z,53.92
2022-08-08T07:47:51.712Z,52.59
2022-08-08T07:48:49.628Z,52.49
2022-08-08T07:49:49.603Z,53.09
2022-08-08T07:50:49.602Z,53.29
2022-08-08T07:51:53.952Z,52.39
2022-08-08T07:52:49.582Z,53.59
2022-08-08T07:54:01.486Z,53.79
2022-08-08T07:54:50.558Z,52.79
2022-08-08T07:55:49.567Z,52.79
2022-08-08T07:56:49.535Z,52.09
2022-08-08T07:57:49.541Z,53.59
2022-08-08T07:58:50.087Z,53.39
2022-08-08T07:59:49.509Z,52.39
2022-08-08T08:00:49.588Z,52.29
2022-08-08T08:02:35.998Z,52.07
2022-08-08T08:02:50.471Z,53.27
2022-08-08T08:03:49.471Z,51.65
2022-08-08T08:04:52.301Z,51.67
2022-08-08T08:05:50.885Z,51.67
2022-08-08T08:06:49.423Z,52.17
2022-08-08T08:07:53.321Z,52.74
2022-08-08T08:08:52.546Z,51.75
2022-08-08T08:09:49.399Z,50.82
2022-08-08T08:10:49.412Z,51.82
2022-08-08T08:11:51.994Z,51.62
2022-08-08T08:12:50.380Z,52.89
2022-08-08T08:14:08.031Z,51.00
2022-08-08T08:14:50.342Z,51.10
2022-08-08T08:15:49.351Z,50.30
2022-08-08T08:16:50.742Z,51.00
2022-08-08T08:17:56.040Z,51.10
2022-08-08T08:18:51.694Z,51.97
2022-08-08T08:19:50.414Z,50.87
2022-08-08T08:20:50.311Z,49.78
2022-08-08T08:21:57.662Z,49.88
2022-08-08T08:22:50.275Z,50.50
2022-08-08T08:23:51.178Z,50.90
2022-08-08T08:24:49.251Z,50.80
2022-08-08T08:25:52.994Z,50.70
2022-08-08T08:26:52.918Z,50.18
2022-08-08T08:27:49.215Z,49.98
2022-08-08T08:28:49.204Z,50.08
2022-08-08T08:29:51.908Z,51.15
2022-08-08T08:30:49.182Z,49.76
2022-08-08T08:31:54.157Z,49.66
2022-08-08T08:32:51.849Z,48.66
2022-08-08T08:33:50.656Z,50.15
2022-08-08T08:34:49.355Z,49.55
2022-08-08T08:36:19.462Z,48.07
2022-08-08T08:36:51.458Z,48.24
2022-08-08T08:38:13.639Z,46.77
2022-08-08T08:38:50.279Z,47.77
2022-08-08T08:40:01.106Z,48.16
2022-08-08T08:40:51.319Z,46.87
2022-08-08T08:41:49.065Z,46.95
2022-08-08T08:42:49.057Z,47.74
2022-08-08T08:43:49.063Z,46.55
2022-08-08T08:44:49.068Z,47.44
2022-08-08T08:45:49.039Z,47.74
2022-08-08T08:46:51.158Z,47.34
2022-08-08T08:47:50.038Z,45.95
2022-08-08T08:48:49.429Z,45.95
2022-08-08T08:49:48.987Z,45.95
2022-08-08T08:50:48.972Z,45.15
2022-08-08T08:51:51.622Z,45.26
2022-08-08T08:52:59.463Z,44.85
2022-08-08T08:53:55.865Z,46.75
2022-08-08T08:54:49.925Z,46.35
2022-08-08T08:55:49.907Z,45.83
2022-08-08T08:56:48.914Z,47.05
2022-08-08T08:57:48.895Z,47.72
2022-08-08T08:58:50.246Z,46.60
2022-08-08T08:59:59.931Z,44.62
2022-08-08T09:01:08.771Z,44.62
2022-08-08T09:01:49.953Z,45.29
2022-08-08T09:02:48.847Z,46.11
2022-08-08T09:03:50.486Z,44.71
2022-08-08T09:04:50.251Z,43.96
2022-08-08T09:05:54.211Z,46.03
2022-08-08T09:06:50.303Z,46.01
2022-08-08T09:07:52.296Z,46.11
2022-08-08T09:08:52.061Z,44.81
2022-08-08T09:09:55.204Z,45.71
2022-08-08T09:10:50.976Z,44.34
2022-08-08T09:12:02.414Z,43.32
2022-08-08T09:12:50.479Z,42.25
2022-08-08T09:13:48.720Z,43.72
2022-08-08T09:14:48.720Z,44.62
2022-08-08T09:15:48.712Z,44.22
2022-08-08T09:16:49.329Z,44.71
2022-08-08T09:17:55.507Z,44.32
2022-08-08T09:18:49.669Z,43.92
2022-08-08T09:21:59.852Z,45.21
2022-08-08T09:22:00.316Z,44.70
2022-08-08T09:22:01.319Z,44.99
2022-08-08T09:22:49.651Z,43.60
2022-08-08T09:23:48.621Z,44.49
2022-08-08T09:24:48.623Z,45.11
2022-08-08T09:26:00.597Z,44.70
2022-08-08T09:26:49.867Z,46.88
2022-08-08T09:27:57.627Z,45.68
2022-08-08T09:28:49.582Z,44.25
2022-08-08T09:29:52.714Z,44.45
2022-08-08T09:30:48.551Z,43.66
2022-08-08T09:31:55.980Z,42.86
2022-08-08T09:32:50.355Z,42.58
2022-08-08T09:34:15.363Z,43.98
2022-08-08T09:34:50.622Z,42.88
2022-08-08T09:35:48.915Z,42.69
2022-08-08T09:36:51.901Z,42.99
2022-08-08T09:38:01.004Z,42.88
2022-08-08T09:38:53.585Z,42.07
2022-08-08T09:39:48.490Z,42.29
2022-08-08T09:40:53.943Z,44.07
2022-08-08T09:41:54.926Z,44.15
2022-08-08T09:42:51.245Z,43.54
2022-08-08T09:44:06.543Z,42.55
2022-08-08T09:44:49.409Z,43.44
2022-08-08T09:45:55.328Z,42.17
2022-08-08T09:46:57.642Z,44.15
2022-08-08T09:48:10.060Z,43.06
2022-08-08T09:48:50.114Z,43.46
2022-08-08T09:49:51.393Z,44.45
2022-08-08T09:50:50.256Z,43.06
2022-08-08T09:52:07.076Z,42.25
2022-08-08T09:52:59.332Z,42.05
2022-08-08T09:53:59.783Z,41.67
2022-08-08T09:54:49.313Z,42.37
2022-08-08T09:56:04.439Z,42.07
2022-08-08T09:56:49.275Z,42.57
2022-08-08T09:57:55.644Z,44.33
2022-08-08T10:01:14.599Z,42.45
2022-08-08T10:02:12.692Z,44.23
2022-08-08T10:03:07.882Z,43.71
2022-08-08T10:04:06.854Z,42.82
2022-08-08T10:05:14.349Z,42.33
2022-08-08T10:06:07.820Z,42.25
2022-08-08T10:07:07.500Z,42.45
2022-08-08T10:08:08.370Z,41.58
2022-08-08T10:09:08.397Z,42.47
2022-08-08T10:10:07.363Z,42.17
2022-08-08T10:12:23.097Z,42.15
2022-08-08T10:12:27.201Z,42.15
2022-08-08T10:13:14.610Z,41.73
2022-08-08T10:14:28.666Z,40.94
2022-08-08T10:15:18.054Z,42.23
2022-08-08T10:16:07.718Z,42.41
2022-08-08T10:17:57.235Z,42.68
2022-08-08T10:18:11.736Z,41.10
2022-08-08T10:19:07.687Z,40.90
2022-08-08T10:20:06.678Z,41.00
2022-08-08T10:21:22.740Z,40.90
2022-08-08T10:22:07.673Z,39.81
2022-08-08T10:23:06.653Z,41.30
2022-08-08T10:24:28.299Z,41.02
2022-08-08T10:25:16.618Z,40.52
2022-08-08T10:26:25.814Z,40.92
2022-08-08T10:27:13.114Z,41.61
2022-08-08T10:28:07.610Z,40.84
2022-08-08T10:29:07.581Z,42.52
2022-08-08T10:30:06.567Z,41.12
2022-08-08T10:31:07.557Z,41.10
2022-08-08T10:32:06.551Z,41.39
2022-08-08T10:33:06.560Z,41.47
2022-08-08T10:34:20.229Z,40.98
2022-08-08T10:35:11.618Z,39.29
2022-08-08T10:36:07.601Z,39.31
2022-08-08T10:37:07.493Z,40.31
2022-08-08T10:38:07.936Z,40.80
2022-08-08T10:39:07.300Z,41.10
2022-08-08T10:40:07.201Z,41.00
2022-08-08T10:41:06.466Z,41.30
2022-08-08T10:42:15.472Z,41.20
2022-08-08T10:43:10.059Z,40.82
2022-08-08T10:44:06.420Z,39.93
2022-08-08T10:45:09.287Z,40.52
2022-08-08T10:46:06.395Z,41.31
2022-08-08T10:47:07.393Z,41.60
2022-08-08T10:48:06.387Z,40.88
2022-08-08T10:49:06.367Z,40.09
2022-08-08T10:50:07.368Z,40.50
2022-08-08T10:51:06.417Z,40.11
2022-08-08T10:52:06.344Z,40.68
2022-08-08T10:53:07.850Z,41.95
2022-08-08T10:54:07.354Z,39.06
2022-08-08T10:55:06.801Z,40.25
2022-08-08T10:56:06.307Z,40.45
2022-08-08T10:57:08.952Z,39.46
2022-08-08T10:58:06.556Z,39.58
2022-08-08T10:59:06.261Z,39.20
2022-08-08T11:00:06.260Z,40.37
2022-08-08T11:01:10.925Z,42.14
2022-08-08T11:02:07.495Z,39.87
2022-08-08T11:03:06.220Z,40.74
2022-08-08T11:04:06.283Z,40.15
2022-08-08T11:05:15.125Z,40.03
2022-08-08T11:06:07.205Z,40.33
2022-08-08T11:07:07.520Z,38.33
2022-08-08T11:08:37.120Z,38.23
2022-08-08T11:09:15.620Z,38.53
2022-08-08T11:10:07.152Z,39.03
2022-08-08T11:11:07.929Z,39.50
2022-08-08T11:12:13.229Z,39.12
2022-08-08T11:13:28.733Z,39.54
2022-08-08T11:14:07.117Z,38.84
2022-08-08T11:15:06.095Z,38.55
2022-08-08T11:16:07.816Z,40.05
2022-08-08T11:17:08.698Z,40.05
2022-08-08T11:18:07.059Z,39.56
2022-08-08T11:19:06.052Z,37.98
2022-08-08T11:20:11.068Z,39.04
2022-08-08T11:21:08.942Z,39.24
2022-08-08T11:22:06.032Z,39.83
2022-08-08T11:23:06.130Z,40.80
2022-08-08T11:24:05.994Z,39.20
2022-08-08T11:25:14.314Z,39.87
2022-08-08T11:26:06.977Z,39.86
2022-08-08T11:27:19.858Z,39.28
2022-08-08T11:28:06.947Z,38.08
2022-08-08T11:29:05.944Z,37.19
2022-08-08T11:30:19.926Z,37.70
2022-08-08T11:31:09.513Z,37.43
2022-08-08T11:32:05.923Z,37.82
2022-08-08T11:33:12.478Z,38.31
2022-08-08T11:34:22.881Z,39.50
2022-08-08T11:35:23.375Z,38.08
2022-08-08T11:36:06.869Z,37.76
2022-08-08T11:37:15.481Z,37.49
2022-08-08T11:38:36.925Z,36.91
2022-08-08T11:39:12.858Z,37.52
2022-08-08T11:40:07.030Z,37.92
2022-08-08T11:41:05.817Z,38.69
2022-08-08T11:42:09.055Z,38.57
2022-08-08T11:43:05.815Z,37.49
2022-08-08T11:44:05.803Z,37.19
2022-08-08T11:45:05.770Z,38.12
2022-08-08T11:46:14.440Z,38.31
2022-08-08T11:47:12.827Z,37.62
2022-08-08T11:48:09.791Z,37.30
2022-08-08T11:49:05.741Z,37.51
2022-08-08T11:50:05.763Z,38.00
2022-08-08T11:51:30.849Z,36.91
2022-08-08T11:52:06.694Z,36.91
2022-08-08T11:53:06.274Z,37.23
2022-08-08T11:54:05.688Z,37.62
2022-08-08T11:55:06.681Z,37.92
2022-08-08T11:56:05.660Z,37.62
2022-08-08T11:57:05.649Z,38.73
2022-08-08T11:58:14.392Z,38.55
2022-08-08T11:59:06.619Z,39.22
2022-08-08T12:00:06.634Z,38.82
2022-08-08T12:01:16.324Z,39.95
2022-08-08T12:02:30.947Z,39.04
2022-08-08T12:03:06.634Z,38.73
2022-08-08T12:04:05.835Z,39.40
2022-08-08T12:05:05.576Z,38.00
2022-08-08T12:06:05.563Z,38.51
2022-08-08T12:07:05.547Z,38.51
2022-08-08T12:08:06.529Z,38.61
2022-08-08T12:09:05.513Z,38.31
2022-08-08T12:10:08.783Z,38.82
2022-08-08T12:11:05.512Z,38.45
2022-08-08T12:12:05.479Z,38.86
2022-08-08T12:13:05.475Z,38.57
2022-08-08T12:14:05.510Z,38.57
2022-08-08T12:15:05.451Z,39.24
2022-08-08T12:16:05.447Z,39.24
2022-08-08T12:17:05.448Z,38.13
2022-08-08T12:18:06.420Z,37.13
2022-08-08T12:19:05.997Z,37.66
2022-08-08T12:20:05.731Z,38.45
2022-08-08T12:21:05.405Z,38.07
2022-08-08T12:22:12.818Z,38.17
2022-08-08T12:23:13.716Z,38.27
2022-08-08T12:24:06.383Z,39.65
2022-08-08T12:25:05.348Z,38.57
2022-08-08T12:26:05.348Z,38.47
2022-08-08T12:27:07.622Z,38.57
2022-08-08T12:28:05.314Z,38.67
2022-08-08T12:29:05.295Z,38.37
2022-08-08T12:30:05.358Z,39.28
2022-08-08T12:31:05.288Z,39.56
2022-08-08T12:32:05.282Z,38.53
2022-08-08T12:33:07.890Z,39.14
2022-08-08T12:34:05.311Z,39.34
2022-08-08T12:35:17.489Z,38.96
2022-08-08T12:36:06.224Z,39.14
2022-08-08T12:37:05.227Z,38.72
2022-08-08T12:38:05.219Z,40.26
2022-08-08T12:39:06.597Z,39.65
2022-08-08T12:40:05.419Z,39.12
2022-08-08T12:41:18.153Z,38.53
2022-08-08T12:42:06.164Z,37.92
2022-08-08T12:43:06.170Z,38.49
2022-08-08T12:44:05.149Z,38.57
2022-08-08T12:45:54.076Z,38.28
2022-08-08T12:46:06.130Z,37.57
2022-08-08T12:47:08.234Z,37.15
2022-08-08T12:48:10.057Z,36.17
2022-08-08T12:49:25.047Z,37.15
2022-08-08T12:50:06.076Z,36.36
2022-08-08T12:51:05.081Z,37.17
2022-08-08T12:52:14.061Z,37.76
2022-08-08T12:53:06.055Z,38.64
2022-08-08T12:54:05.038Z,37.73
2022-08-08T12:55:13.181Z,38.10
2022-08-08T12:56:18.271Z,38.10